sensor_id;sensor_type;location;lat;lon;timestamp;P1;durP1;ratioP1;P2;durP2;ratioP2
54167;SDS011;40072;50.958;3.592;2023-02-01T00:01:42;26.60;;;5.97;;
54167;SDS011;40072;50.958;3.592;2023-02-01T00:04:07;21.02;;;4.57;;
54167;SDS011;40072;50.958;3.592;2023-02-01T00:06:33;30.65;;;5.65;;
54167;SDS011;40072;50.958;3.592;2023-02-01T00:08:59;28.08;;;5.15;;
54167;SDS011;40072;50.958;3.592;2023-02-01T00:11:25;28.15;;;5.97;;
54167;SDS011;40072;50.958;3.592;2023-02-01T00:13:51;28.40;;;5.43;;
54167;SDS011;40072;50.958;3.592;2023-02-01T00:16:18;30.80;;;6.78;;
54167;SDS011;40072;50.958;3.592;2023-02-01T00:18:49;32.85;;;5.88;;
54167;SDS011;40072;50.958;3.592;2023-02-01T00:21:17;21.23;;;5.38;;
54167;SDS011;40072;50.958;3.592;2023-02-01T00:23:45;29.17;;;4.80;;
54167;SDS011;40072;50.958;3.592;2023-02-01T00:26:19;29.20;;;5.32;;
54167;SDS011;40072;50.958;3.592;2023-02-01T00:28:57;35.28;;;5.22;;
54167;SDS011;40072;50.958;3.592;2023-02-01T00:31:23;28.77;;;4.95;;
54167;SDS011;40072;50.958;3.592;2023-02-01T00:33:49;23.65;;;5.05;;
54167;SDS011;40072;50.958;3.592;2023-02-01T00:36:15;28.92;;;4.95;;
54167;SDS011;40072;50.958;3.592;2023-02-01T00:38:41;13.57;;;3.38;;
54167;SDS011;40072;50.958;3.592;2023-02-01T00:41:09;26.45;;;4.57;;
54167;SDS011;40072;50.958;3.592;2023-02-01T00:43:37;24.80;;;4.90;;
54167;SDS011;40072;50.958;3.592;2023-02-01T00:46:03;27.70;;;5.32;;
54167;SDS011;40072;50.958;3.592;2023-02-01T00:48:29;18.63;;;4.75;;
54167;SDS011;40072;50.958;3.592;2023-02-01T00:50:58;22.65;;;5.10;;
54167;SDS011;40072;50.958;3.592;2023-02-01T00:53:35;23.08;;;4.05;;
54167;SDS011;40072;50.958;3.592;2023-02-01T00:56:01;25.30;;;5.60;;
54167;SDS011;40072;50.958;3.592;2023-02-01T00:58:27;14.68;;;4.00;;
54167;SDS011;40072;50.958;3.592;2023-02-01T01:03:35;27.80;;;4.95;;
54167;SDS011;40072;50.958;3.592;2023-02-01T01:06:04;26.20;;;4.32;;
54167;SDS011;40072;50.958;3.592;2023-02-01T01:08:32;24.30;;;4.95;;
54167;SDS011;40072;50.958;3.592;2023-02-01T01:10:58;24.45;;;5.43;;
54167;SDS011;40072;50.958;3.592;2023-02-01T01:18:35;26.23;;;5.38;;
54167;SDS011;40072;50.958;3.592;2023-02-01T01:21:01;27.52;;;6.70;;
54167;SDS011;40072;50.958;3.592;2023-02-01T01:23:28;26.60;;;6.93;;
54167;SDS011;40072;50.958;3.592;2023-02-01T01:25:54;21.45;;;7.07;;
54167;SDS011;40072;50.958;3.592;2023-02-01T01:28:20;37.22;;;9.52;;
54167;SDS011;40072;50.958;3.592;2023-02-01T01:30:45;39.22;;;9.18;;
54167;SDS011;40072;50.958;3.592;2023-02-01T01:33:11;32.90;;;8.95;;
54167;SDS011;40072;50.958;3.592;2023-02-01T01:35:37;30.85;;;10.13;;
54167;SDS011;40072;50.958;3.592;2023-02-01T01:38:02;30.52;;;7.38;;
54167;SDS011;40072;50.958;3.592;2023-02-01T01:40:29;34.13;;;8.25;;
54167;SDS011;40072;50.958;3.592;2023-02-01T01:42:55;30.55;;;7.68;;
54167;SDS011;40072;50.958;3.592;2023-02-01T01:47:59;33.22;;;7.95;;
54167;SDS011;40072;50.958;3.592;2023-02-01T01:50:48;21.80;;;5.30;;
54167;SDS011;40072;50.958;3.592;2023-02-01T01:53:20;24.15;;;6.22;;
54167;SDS011;40072;50.958;3.592;2023-02-01T01:55:51;28.02;;;6.07;;
54167;SDS011;40072;50.958;3.592;2023-02-01T01:58:19;26.13;;;4.85;;
54167;SDS011;40072;50.958;3.592;2023-02-01T02:00:48;34.15;;;6.07;;
54167;SDS011;40072;50.958;3.592;2023-02-01T02:03:21;31.00;;;4.85;;
54167;SDS011;40072;50.958;3.592;2023-02-01T02:05:55;25.98;;;4.07;;
54167;SDS011;40072;50.958;3.592;2023-02-01T02:08:24;31.45;;;5.93;;
54167;SDS011;40072;50.958;3.592;2023-02-01T02:10:51;37.70;;;5.90;;
54167;SDS011;40072;50.958;3.592;2023-02-01T02:13:37;19.33;;;4.60;;
54167;SDS011;40072;50.958;3.592;2023-02-01T02:30:22;28.02;;;5.38;;
54167;SDS011;40072;50.958;3.592;2023-02-01T02:38:41;25.35;;;5.35;;
54167;SDS011;40072;50.958;3.592;2023-02-01T02:41:46;24.67;;;4.53;;
54167;SDS011;40072;50.958;3.592;2023-02-01T02:44:46;39.58;;;5.82;;
54167;SDS011;40072;50.958;3.592;2023-02-01T02:47:37;26.63;;;5.20;;
54167;SDS011;40072;50.958;3.592;2023-02-01T02:50:26;31.40;;;5.22;;
54167;SDS011;40072;50.958;3.592;2023-02-01T02:53:23;26.80;;;4.40;;
54167;SDS011;40072;50.958;3.592;2023-02-01T02:56:12;22.50;;;4.40;;
54167;SDS011;40072;50.958;3.592;2023-02-01T02:58:58;41.30;;;6.40;;
54167;SDS011;40072;50.958;3.592;2023-02-01T03:01:43;30.27;;;5.70;;
54167;SDS011;40072;50.958;3.592;2023-02-01T03:04:27;36.95;;;6.07;;
54167;SDS011;40072;50.958;3.592;2023-02-01T03:06:53;30.73;;;6.13;;
54167;SDS011;40072;50.958;3.592;2023-02-01T03:09:21;27.88;;;4.43;;
54167;SDS011;40072;50.958;3.592;2023-02-01T03:12:02;30.48;;;5.53;;
54167;SDS011;40072;50.958;3.592;2023-02-01T03:14:52;28.55;;;5.40;;
54167;SDS011;40072;50.958;3.592;2023-02-01T03:17:24;26.40;;;4.78;;
54167;SDS011;40072;50.958;3.592;2023-02-01T03:19:55;26.80;;;4.90;;
54167;SDS011;40072;50.958;3.592;2023-02-01T03:22:26;33.10;;;5.50;;
54167;SDS011;40072;50.958;3.592;2023-02-01T03:25:00;28.33;;;5.53;;
54167;SDS011;40072;50.958;3.592;2023-02-01T03:27:32;26.63;;;5.38;;
54167;SDS011;40072;50.958;3.592;2023-02-01T03:30:19;31.60;;;5.50;;
54167;SDS011;40072;50.958;3.592;2023-02-01T03:32:56;29.17;;;6.43;;
54167;SDS011;40072;50.958;3.592;2023-02-01T03:35:30;31.77;;;6.80;;
54167;SDS011;40072;50.958;3.592;2023-02-01T03:38:48;34.78;;;7.10;;
54167;SDS011;40072;50.958;3.592;2023-02-01T03:41:03;30.10;;;6.20;;
54167;SDS011;40072;50.958;3.592;2023-02-01T03:43:42;34.65;;;5.78;;
54167;SDS011;40072;50.958;3.592;2023-02-01T03:46:27;31.58;;;5.03;;
54167;SDS011;40072;50.958;3.592;2023-02-01T03:48:58;18.13;;;4.13;;
54167;SDS011;40072;50.958;3.592;2023-02-01T03:51:30;26.58;;;4.63;;
54167;SDS011;40072;50.958;3.592;2023-02-01T03:53:57;27.77;;;5.20;;
54167;SDS011;40072;50.958;3.592;2023-02-01T03:56:26;32.97;;;6.22;;
54167;SDS011;40072;50.958;3.592;2023-02-01T03:58:54;26.02;;;4.85;;
54167;SDS011;40072;50.958;3.592;2023-02-01T04:01:24;25.92;;;4.30;;
54167;SDS011;40072;50.958;3.592;2023-02-01T04:03:51;34.88;;;5.55;;
54167;SDS011;40072;50.958;3.592;2023-02-01T04:06:17;35.40;;;5.78;;
54167;SDS011;40072;50.958;3.592;2023-02-01T04:08:42;31.50;;;5.93;;
54167;SDS011;40072;50.958;3.592;2023-02-01T04:11:08;25.63;;;4.28;;
54167;SDS011;40072;50.958;3.592;2023-02-01T04:13:34;26.05;;;5.30;;
54167;SDS011;40072;50.958;3.592;2023-02-01T04:16:00;30.17;;;5.00;;
54167;SDS011;40072;50.958;3.592;2023-02-01T04:18:25;27.55;;;4.70;;
54167;SDS011;40072;50.958;3.592;2023-02-01T04:20:51;31.70;;;5.65;;
54167;SDS011;40072;50.958;3.592;2023-02-01T04:23:17;32.70;;;4.80;;
54167;SDS011;40072;50.958;3.592;2023-02-01T04:25:42;20.02;;;5.03;;
54167;SDS011;40072;50.958;3.592;2023-02-01T04:28:08;22.50;;;4.97;;
54167;SDS011;40072;50.958;3.592;2023-02-01T04:30:34;40.00;;;6.18;;
54167;SDS011;40072;50.958;3.592;2023-02-01T04:33:00;37.67;;;5.28;;
54167;SDS011;40072;50.958;3.592;2023-02-01T04:35:25;25.85;;;4.65;;
54167;SDS011;40072;50.958;3.592;2023-02-01T04:37:51;32.72;;;5.35;;
54167;SDS011;40072;50.958;3.592;2023-02-01T04:40:16;26.05;;;5.18;;
54167;SDS011;40072;50.958;3.592;2023-02-01T04:42:42;26.70;;;4.78;;
54167;SDS011;40072;50.958;3.592;2023-02-01T04:45:08;33.22;;;5.72;;
54167;SDS011;40072;50.958;3.592;2023-02-01T04:47:34;29.77;;;5.40;;
54167;SDS011;40072;50.958;3.592;2023-02-01T04:50:00;30.98;;;4.90;;
54167;SDS011;40072;50.958;3.592;2023-02-01T04:52:25;30.35;;;7.80;;
54167;SDS011;40072;50.958;3.592;2023-02-01T04:54:52;27.02;;;5.80;;
54167;SDS011;40072;50.958;3.592;2023-02-01T04:57:19;23.08;;;4.88;;
54167;SDS011;40072;50.958;3.592;2023-02-01T04:59:45;23.17;;;5.38;;
54167;SDS011;40072;50.958;3.592;2023-02-01T05:02:10;23.98;;;4.35;;
54167;SDS011;40072;50.958;3.592;2023-02-01T05:04:36;33.70;;;5.78;;
54167;SDS011;40072;50.958;3.592;2023-02-01T05:07:02;33.85;;;5.78;;
54167;SDS011;40072;50.958;3.592;2023-02-01T05:09:27;32.45;;;5.90;;
54167;SDS011;40072;50.958;3.592;2023-02-01T05:11:53;34.70;;;6.10;;
54167;SDS011;40072;50.958;3.592;2023-02-01T05:14:37;25.15;;;5.25;;
54167;SDS011;40072;50.958;3.592;2023-02-01T05:17:02;32.90;;;6.38;;
54167;SDS011;40072;50.958;3.592;2023-02-01T05:19:28;40.63;;;7.88;;
54167;SDS011;40072;50.958;3.592;2023-02-01T05:21:54;35.55;;;8.18;;
54167;SDS011;40072;50.958;3.592;2023-02-01T05:24:19;23.95;;;6.28;;
54167;SDS011;40072;50.958;3.592;2023-02-01T05:26:46;40.15;;;7.93;;
54167;SDS011;40072;50.958;3.592;2023-02-01T05:29:13;28.80;;;6.97;;
54167;SDS011;40072;50.958;3.592;2023-02-01T05:31:39;30.23;;;7.38;;
54167;SDS011;40072;50.958;3.592;2023-02-01T05:34:05;25.30;;;7.10;;
54167;SDS011;40072;50.958;3.592;2023-02-01T05:36:31;29.88;;;6.18;;
54167;SDS011;40072;50.958;3.592;2023-02-01T05:38:57;38.72;;;6.75;;
54167;SDS011;40072;50.958;3.592;2023-02-01T05:41:23;33.83;;;5.85;;
54167;SDS011;40072;50.958;3.592;2023-02-01T05:43:49;25.60;;;5.85;;
54167;SDS011;40072;50.958;3.592;2023-02-01T05:46:15;39.28;;;6.25;;
54167;SDS011;40072;50.958;3.592;2023-02-01T05:48:41;34.97;;;6.57;;
54167;SDS011;40072;50.958;3.592;2023-02-01T05:51:07;42.20;;;6.13;;
54167;SDS011;40072;50.958;3.592;2023-02-01T05:53:33;35.97;;;5.97;;
54167;SDS011;40072;50.958;3.592;2023-02-01T05:55:59;33.13;;;5.50;;
54167;SDS011;40072;50.958;3.592;2023-02-01T05:58:24;38.00;;;7.20;;
54167;SDS011;40072;50.958;3.592;2023-02-01T06:00:50;27.35;;;5.07;;
54167;SDS011;40072;50.958;3.592;2023-02-01T06:03:16;32.15;;;5.53;;
54167;SDS011;40072;50.958;3.592;2023-02-01T06:05:45;28.50;;;5.22;;
54167;SDS011;40072;50.958;3.592;2023-02-01T06:08:12;33.03;;;6.40;;
54167;SDS011;40072;50.958;3.592;2023-02-01T06:10:38;32.72;;;5.30;;
54167;SDS011;40072;50.958;3.592;2023-02-01T06:13:04;31.55;;;5.40;;
54167;SDS011;40072;50.958;3.592;2023-02-01T06:15:30;33.22;;;6.15;;
54167;SDS011;40072;50.958;3.592;2023-02-01T06:17:57;36.72;;;6.30;;
54167;SDS011;40072;50.958;3.592;2023-02-01T06:20:23;29.10;;;5.18;;
54167;SDS011;40072;50.958;3.592;2023-02-01T06:22:48;38.97;;;5.88;;
54167;SDS011;40072;50.958;3.592;2023-02-01T06:25:14;28.85;;;5.82;;
54167;SDS011;40072;50.958;3.592;2023-02-01T06:27:41;29.40;;;6.03;;
54167;SDS011;40072;50.958;3.592;2023-02-01T06:30:07;28.83;;;4.78;;
54167;SDS011;40072;50.958;3.592;2023-02-01T06:32:33;40.58;;;6.13;;
54167;SDS011;40072;50.958;3.592;2023-02-01T06:34:59;35.20;;;6.90;;
54167;SDS011;40072;50.958;3.592;2023-02-01T06:37:25;35.85;;;5.70;;
54167;SDS011;40072;50.958;3.592;2023-02-01T06:39:52;39.83;;;6.97;;
54167;SDS011;40072;50.958;3.592;2023-02-01T06:42:18;33.30;;;6.03;;
54167;SDS011;40072;50.958;3.592;2023-02-01T06:44:43;33.42;;;5.78;;
54167;SDS011;40072;50.958;3.592;2023-02-01T06:47:09;32.58;;;5.30;;
54167;SDS011;40072;50.958;3.592;2023-02-01T06:49:35;26.45;;;6.50;;
54167;SDS011;40072;50.958;3.592;2023-02-01T06:52:01;33.03;;;5.90;;
54167;SDS011;40072;50.958;3.592;2023-02-01T06:54:27;43.78;;;6.60;;
54167;SDS011;40072;50.958;3.592;2023-02-01T06:56:53;37.33;;;6.22;;
54167;SDS011;40072;50.958;3.592;2023-02-01T06:59:18;39.22;;;5.88;;
54167;SDS011;40072;50.958;3.592;2023-02-01T07:01:44;41.97;;;6.38;;
54167;SDS011;40072;50.958;3.592;2023-02-01T07:04:11;28.58;;;5.30;;
54167;SDS011;40072;50.958;3.592;2023-02-01T07:06:37;27.63;;;6.18;;
54167;SDS011;40072;50.958;3.592;2023-02-01T07:09:03;35.17;;;7.97;;
54167;SDS011;40072;50.958;3.592;2023-02-01T07:11:29;49.80;;;7.35;;
54167;SDS011;40072;50.958;3.592;2023-02-01T07:13:55;35.50;;;6.72;;
54167;SDS011;40072;50.958;3.592;2023-02-01T07:16:21;26.45;;;6.78;;
54167;SDS011;40072;50.958;3.592;2023-02-01T07:18:49;34.45;;;7.07;;
54167;SDS011;40072;50.958;3.592;2023-02-01T07:21:16;34.17;;;6.95;;
54167;SDS011;40072;50.958;3.592;2023-02-01T07:23:42;30.02;;;6.45;;
54167;SDS011;40072;50.958;3.592;2023-02-01T07:26:09;26.67;;;5.47;;
54167;SDS011;40072;50.958;3.592;2023-02-01T07:28:37;29.85;;;5.57;;
54167;SDS011;40072;50.958;3.592;2023-02-01T07:31:04;37.05;;;7.38;;
54167;SDS011;40072;50.958;3.592;2023-02-01T07:33:31;37.88;;;6.32;;
54167;SDS011;40072;50.958;3.592;2023-02-01T07:35:59;27.20;;;5.18;;
54167;SDS011;40072;50.958;3.592;2023-02-01T07:38:26;22.65;;;5.18;;
54167;SDS011;40072;50.958;3.592;2023-02-01T07:40:56;36.80;;;5.70;;
54167;SDS011;40072;50.958;3.592;2023-02-01T07:43:27;29.30;;;6.13;;
54167;SDS011;40072;50.958;3.592;2023-02-01T07:45:54;31.85;;;5.57;;
54167;SDS011;40072;50.958;3.592;2023-02-01T07:48:21;22.50;;;4.57;;
54167;SDS011;40072;50.958;3.592;2023-02-01T07:50:47;27.92;;;4.65;;
54167;SDS011;40072;50.958;3.592;2023-02-01T07:53:13;23.67;;;5.07;;
54167;SDS011;40072;50.958;3.592;2023-02-01T07:55:39;31.17;;;5.47;;
54167;SDS011;40072;50.958;3.592;2023-02-01T07:58:06;31.20;;;4.95;;
54167;SDS011;40072;50.958;3.592;2023-02-01T08:00:31;26.48;;;4.50;;
54167;SDS011;40072;50.958;3.592;2023-02-01T08:03:16;31.55;;;4.60;;
54167;SDS011;40072;50.958;3.592;2023-02-01T08:05:41;35.55;;;4.60;;
54167;SDS011;40072;50.958;3.592;2023-02-01T08:08:07;34.33;;;5.35;;
54167;SDS011;40072;50.958;3.592;2023-02-01T08:10:33;24.98;;;3.97;;
54167;SDS011;40072;50.958;3.592;2023-02-01T08:13:00;26.80;;;5.53;;
54167;SDS011;40072;50.958;3.592;2023-02-01T08:15:27;19.65;;;4.43;;
54167;SDS011;40072;50.958;3.592;2023-02-01T08:17:54;32.63;;;5.97;;
54167;SDS011;40072;50.958;3.592;2023-02-01T08:20:20;19.02;;;4.03;;
54167;SDS011;40072;50.958;3.592;2023-02-01T08:22:48;25.52;;;4.60;;
54167;SDS011;40072;50.958;3.592;2023-02-01T08:25:14;24.73;;;4.32;;
54167;SDS011;40072;50.958;3.592;2023-02-01T08:27:40;26.30;;;4.90;;
54167;SDS011;40072;50.958;3.592;2023-02-01T08:30:06;21.55;;;4.28;;
54167;SDS011;40072;50.958;3.592;2023-02-01T08:32:32;34.13;;;6.78;;
54167;SDS011;40072;50.958;3.592;2023-02-01T08:34:59;26.42;;;5.53;;
54167;SDS011;40072;50.958;3.592;2023-02-01T08:37:24;23.17;;;5.15;;
54167;SDS011;40072;50.958;3.592;2023-02-01T08:39:50;25.10;;;4.82;;
54167;SDS011;40072;50.958;3.592;2023-02-01T08:42:16;22.63;;;4.22;;
54167;SDS011;40072;50.958;3.592;2023-02-01T08:45:01;23.25;;;4.47;;
54167;SDS011;40072;50.958;3.592;2023-02-01T08:47:28;30.25;;;4.78;;
54167;SDS011;40072;50.958;3.592;2023-02-01T08:49:54;26.60;;;5.03;;
54167;SDS011;40072;50.958;3.592;2023-02-01T08:52:20;32.17;;;5.25;;
54167;SDS011;40072;50.958;3.592;2023-02-01T08:54:46;29.05;;;4.65;;
54167;SDS011;40072;50.958;3.592;2023-02-01T08:57:12;30.30;;;5.57;;
54167;SDS011;40072;50.958;3.592;2023-02-01T08:59:38;17.98;;;4.05;;
54167;SDS011;40072;50.958;3.592;2023-02-01T09:02:04;30.58;;;4.40;;
54167;SDS011;40072;50.958;3.592;2023-02-01T09:04:30;19.92;;;3.78;;
54167;SDS011;40072;50.958;3.592;2023-02-01T09:06:55;17.27;;;3.58;;
54167;SDS011;40072;50.958;3.592;2023-02-01T09:09:21;25.20;;;4.68;;
54167;SDS011;40072;50.958;3.592;2023-02-01T09:11:47;24.75;;;4.43;;
54167;SDS011;40072;50.958;3.592;2023-02-01T09:14:15;17.92;;;4.20;;
54167;SDS011;40072;50.958;3.592;2023-02-01T09:16:41;28.38;;;4.88;;
54167;SDS011;40072;50.958;3.592;2023-02-01T09:19:07;28.63;;;4.10;;
54167;SDS011;40072;50.958;3.592;2023-02-01T09:21:33;23.50;;;3.97;;
54167;SDS011;40072;50.958;3.592;2023-02-01T09:23:59;28.38;;;4.22;;
54167;SDS011;40072;50.958;3.592;2023-02-01T09:26:24;25.13;;;4.28;;
54167;SDS011;40072;50.958;3.592;2023-02-01T09:28:50;26.98;;;4.75;;
54167;SDS011;40072;50.958;3.592;2023-02-01T09:31:16;18.55;;;4.43;;
54167;SDS011;40072;50.958;3.592;2023-02-01T09:33:42;24.20;;;4.65;;
54167;SDS011;40072;50.958;3.592;2023-02-01T09:36:07;18.15;;;4.50;;
54167;SDS011;40072;50.958;3.592;2023-02-01T09:38:33;27.58;;;5.32;;
54167;SDS011;40072;50.958;3.592;2023-02-01T09:40:59;23.40;;;4.68;;
54167;SDS011;40072;50.958;3.592;2023-02-01T09:46:21;28.10;;;5.00;;
54167;SDS011;40072;50.958;3.592;2023-02-01T09:48:53;21.38;;;3.78;;
54167;SDS011;40072;50.958;3.592;2023-02-01T09:51:23;27.10;;;5.03;;
54167;SDS011;40072;50.958;3.592;2023-02-01T09:54:01;24.67;;;4.68;;
54167;SDS011;40072;50.958;3.592;2023-02-01T09:59:34;20.60;;;4.03;;
54167;SDS011;40072;50.958;3.592;2023-02-01T10:02:11;19.85;;;3.92;;
54167;SDS011;40072;50.958;3.592;2023-02-01T10:04:40;21.20;;;3.78;;
54167;SDS011;40072;50.958;3.592;2023-02-01T10:10:34;19.67;;;4.20;;
54167;SDS011;40072;50.958;3.592;2023-02-01T10:15:58;20.60;;;4.15;;
54167;SDS011;40072;50.958;3.592;2023-02-01T10:18:56;20.15;;;3.85;;
54167;SDS011;40072;50.958;3.592;2023-02-01T10:27:19;18.88;;;3.17;;
54167;SDS011;40072;50.958;3.592;2023-02-01T10:29:58;17.92;;;3.38;;
54167;SDS011;40072;50.958;3.592;2023-02-01T10:32:32;19.77;;;4.00;;
54167;SDS011;40072;50.958;3.592;2023-02-01T10:35:04;21.00;;;4.47;;
54167;SDS011;40072;50.958;3.592;2023-02-01T10:37:34;17.05;;;3.20;;
54167;SDS011;40072;50.958;3.592;2023-02-01T10:40:22;19.05;;;3.72;;
54167;SDS011;40072;50.958;3.592;2023-02-01T10:42:53;16.55;;;3.53;;
54167;SDS011;40072;50.958;3.592;2023-02-01T10:45:22;20.83;;;3.08;;
54167;SDS011;40072;50.958;3.592;2023-02-01T10:47:52;17.77;;;4.43;;
54167;SDS011;40072;50.958;3.592;2023-02-01T10:55:40;19.85;;;3.47;;
54167;SDS011;40072;50.958;3.592;2023-02-01T10:58:20;15.77;;;2.38;;
54167;SDS011;40072;50.958;3.592;2023-02-01T11:00:53;21.33;;;3.42;;
54167;SDS011;40072;50.958;3.592;2023-02-01T11:05:57;20.40;;;3.30;;
54167;SDS011;40072;50.958;3.592;2023-02-01T11:08:22;16.25;;;2.85;;
54167;SDS011;40072;50.958;3.592;2023-02-01T11:10:52;21.38;;;3.13;;
54167;SDS011;40072;50.958;3.592;2023-02-01T11:13:33;14.18;;;3.00;;
54167;SDS011;40072;50.958;3.592;2023-02-01T11:16:04;12.80;;;2.67;;
54167;SDS011;40072;50.958;3.592;2023-02-01T11:18:31;16.05;;;4.15;;
54167;SDS011;40072;50.958;3.592;2023-02-01T11:21:00;15.93;;;2.95;;
54167;SDS011;40072;50.958;3.592;2023-02-01T11:23:28;26.10;;;3.67;;
54167;SDS011;40072;50.958;3.592;2023-02-01T11:25:56;16.75;;;3.83;;
54167;SDS011;40072;50.958;3.592;2023-02-01T11:28:25;13.15;;;2.47;;
54167;SDS011;40072;50.958;3.592;2023-02-01T11:30:58;17.83;;;3.35;;
54167;SDS011;40072;50.958;3.592;2023-02-01T11:33:30;16.73;;;2.72;;
54167;SDS011;40072;50.958;3.592;2023-02-01T11:36:06;14.05;;;2.85;;
54167;SDS011;40072;50.958;3.592;2023-02-01T11:38:34;13.55;;;3.15;;
54167;SDS011;40072;50.958;3.592;2023-02-01T11:41:11;12.20;;;2.80;;
54167;SDS011;40072;50.958;3.592;2023-02-01T11:43:49;16.20;;;3.10;;
54167;SDS011;40072;50.958;3.592;2023-02-01T11:46:17;11.80;;;2.43;;
54167;SDS011;40072;50.958;3.592;2023-02-01T11:48:50;11.38;;;2.65;;
54167;SDS011;40072;50.958;3.592;2023-02-01T11:54:17;12.50;;;2.75;;
54167;SDS011;40072;50.958;3.592;2023-02-01T12:00:06;11.00;;;2.45;;
54167;SDS011;40072;50.958;3.592;2023-02-01T12:02:47;10.63;;;1.98;;
54167;SDS011;40072;50.958;3.592;2023-02-01T12:05:37;10.50;;;2.50;;
54167;SDS011;40072;50.958;3.592;2023-02-01T12:08:20;7.68;;;1.70;;
54167;SDS011;40072;50.958;3.592;2023-02-01T12:16:40;9.45;;;2.67;;
54167;SDS011;40072;50.958;3.592;2023-02-01T12:22:07;12.23;;;2.05;;
54167;SDS011;40072;50.958;3.592;2023-02-01T12:33:00;12.57;;;2.42;;
54167;SDS011;40072;50.958;3.592;2023-02-01T12:38:32;12.10;;;2.47;;
54167;SDS011;40072;50.958;3.592;2023-02-01T12:49:17;10.70;;;2.90;;
54167;SDS011;40072;50.958;3.592;2023-02-01T12:52:19;15.40;;;2.55;;
54167;SDS011;40072;50.958;3.592;2023-02-01T12:54:55;11.38;;;2.13;;
54167;SDS011;40072;50.958;3.592;2023-02-01T12:57:42;15.70;;;2.55;;
54167;SDS011;40072;50.958;3.592;2023-02-01T13:05:19;12.15;;;2.40;;
54167;SDS011;40072;50.958;3.592;2023-02-01T13:16:05;18.02;;;3.40;;
54167;SDS011;40072;50.958;3.592;2023-02-01T13:18:34;14.88;;;2.30;;
54167;SDS011;40072;50.958;3.592;2023-02-01T13:21:06;13.98;;;2.95;;
54167;SDS011;40072;50.958;3.592;2023-02-01T13:23:38;12.13;;;2.17;;
54167;SDS011;40072;50.958;3.592;2023-02-01T13:26:05;11.68;;;2.00;;
54167;SDS011;40072;50.958;3.592;2023-02-01T13:31:25;14.50;;;2.47;;
54167;SDS011;40072;50.958;3.592;2023-02-01T13:39:44;14.88;;;3.00;;
54167;SDS011;40072;50.958;3.592;2023-02-01T13:47:20;10.20;;;2.50;;
54167;SDS011;40072;50.958;3.592;2023-02-01T13:49:53;11.35;;;2.65;;
54167;SDS011;40072;50.958;3.592;2023-02-01T13:55:36;12.63;;;2.83;;
54167;SDS011;40072;50.958;3.592;2023-02-01T14:00:39;16.63;;;3.33;;
54167;SDS011;40072;50.958;3.592;2023-02-01T14:23:59;14.98;;;4.05;;
54167;SDS011;40072;50.958;3.592;2023-02-01T14:29:15;13.15;;;2.58;;
54167;SDS011;40072;50.958;3.592;2023-02-01T15:08:58;16.27;;;3.60;;
54167;SDS011;40072;50.958;3.592;2023-02-01T15:11:53;19.00;;;3.00;;
54167;SDS011;40072;50.958;3.592;2023-02-01T15:14:20;18.13;;;3.45;;
54167;SDS011;40072;50.958;3.592;2023-02-01T15:16:46;17.10;;;3.67;;
54167;SDS011;40072;50.958;3.592;2023-02-01T15:19:18;19.85;;;4.05;;
54167;SDS011;40072;50.958;3.592;2023-02-01T15:21:50;22.45;;;3.97;;
54167;SDS011;40072;50.958;3.592;2023-02-01T15:24:22;14.00;;;3.05;;
54167;SDS011;40072;50.958;3.592;2023-02-01T15:26:50;27.27;;;3.13;;
54167;SDS011;40072;50.958;3.592;2023-02-01T15:29:17;17.42;;;3.58;;
54167;SDS011;40072;50.958;3.592;2023-02-01T15:31:49;25.48;;;3.70;;
54167;SDS011;40072;50.958;3.592;2023-02-01T15:34:16;21.73;;;3.92;;
54167;SDS011;40072;50.958;3.592;2023-02-01T15:36:43;22.10;;;4.43;;
54167;SDS011;40072;50.958;3.592;2023-02-01T15:41:45;20.92;;;3.97;;
54167;SDS011;40072;50.958;3.592;2023-02-01T15:44:18;15.00;;;3.30;;
54167;SDS011;40072;50.958;3.592;2023-02-01T15:46:54;17.85;;;3.85;;
54167;SDS011;40072;50.958;3.592;2023-02-01T15:54:19;34.00;;;5.45;;
54167;SDS011;40072;50.958;3.592;2023-02-01T15:56:57;18.60;;;4.18;;
54167;SDS011;40072;50.958;3.592;2023-02-01T16:01:58;21.63;;;3.97;;
54167;SDS011;40072;50.958;3.592;2023-02-01T16:04:25;25.55;;;4.35;;
54167;SDS011;40072;50.958;3.592;2023-02-01T16:06:58;23.80;;;4.38;;
54167;SDS011;40072;50.958;3.592;2023-02-01T16:09:38;22.98;;;4.50;;
54167;SDS011;40072;50.958;3.592;2023-02-01T16:12:46;21.45;;;3.72;;
54167;SDS011;40072;50.958;3.592;2023-02-01T16:15:08;22.13;;;4.35;;
54167;SDS011;40072;50.958;3.592;2023-02-01T16:17:34;24.38;;;4.18;;
54167;SDS011;40072;50.958;3.592;2023-02-01T16:20:00;17.27;;;3.83;;
54167;SDS011;40072;50.958;3.592;2023-02-01T16:22:26;34.30;;;4.80;;
54167;SDS011;40072;50.958;3.592;2023-02-01T16:24:51;27.42;;;5.55;;
54167;SDS011;40072;50.958;3.592;2023-02-01T16:27:17;31.92;;;4.30;;
54167;SDS011;40072;50.958;3.592;2023-02-01T16:29:43;20.67;;;3.88;;
54167;SDS011;40072;50.958;3.592;2023-02-01T16:32:16;30.52;;;4.55;;
54167;SDS011;40072;50.958;3.592;2023-02-01T16:34:44;20.77;;;4.28;;
54167;SDS011;40072;50.958;3.592;2023-02-01T16:37:16;21.73;;;3.92;;
54167;SDS011;40072;50.958;3.592;2023-02-01T16:39:46;30.17;;;4.63;;
54167;SDS011;40072;50.958;3.592;2023-02-01T16:42:12;20.85;;;4.45;;
54167;SDS011;40072;50.958;3.592;2023-02-01T16:44:39;30.23;;;4.78;;
54167;SDS011;40072;50.958;3.592;2023-02-01T16:47:12;28.63;;;4.85;;
54167;SDS011;40072;50.958;3.592;2023-02-01T16:49:44;27.20;;;4.10;;
54167;SDS011;40072;50.958;3.592;2023-02-01T16:52:19;31.60;;;5.03;;
54167;SDS011;40072;50.958;3.592;2023-02-01T16:54:48;17.30;;;3.28;;
54167;SDS011;40072;50.958;3.592;2023-02-01T16:57:14;27.77;;;5.03;;
54167;SDS011;40072;50.958;3.592;2023-02-01T16:59:41;27.00;;;4.70;;
54167;SDS011;40072;50.958;3.592;2023-02-01T17:02:12;25.88;;;5.28;;
54167;SDS011;40072;50.958;3.592;2023-02-01T17:04:40;28.70;;;5.70;;
54167;SDS011;40072;50.958;3.592;2023-02-01T17:07:06;23.05;;;5.15;;
54167;SDS011;40072;50.958;3.592;2023-02-01T17:09:36;29.13;;;5.32;;
54167;SDS011;40072;50.958;3.592;2023-02-01T17:12:03;23.60;;;4.57;;
54167;SDS011;40072;50.958;3.592;2023-02-01T17:14:34;34.63;;;5.35;;
54167;SDS011;40072;50.958;3.592;2023-02-01T17:17:04;25.73;;;5.15;;
54167;SDS011;40072;50.958;3.592;2023-02-01T17:19:29;33.45;;;6.13;;
54167;SDS011;40072;50.958;3.592;2023-02-01T17:21:56;32.20;;;5.47;;
54167;SDS011;40072;50.958;3.592;2023-02-01T17:24:24;34.72;;;4.88;;
54167;SDS011;40072;50.958;3.592;2023-02-01T17:26:52;26.55;;;4.45;;
54167;SDS011;40072;50.958;3.592;2023-02-01T17:29:18;38.17;;;6.22;;
54167;SDS011;40072;50.958;3.592;2023-02-01T17:31:45;32.72;;;5.40;;
54167;SDS011;40072;50.958;3.592;2023-02-01T17:36:41;26.15;;;6.03;;
54167;SDS011;40072;50.958;3.592;2023-02-01T17:39:08;25.25;;;4.90;;
54167;SDS011;40072;50.958;3.592;2023-02-01T17:41:35;21.67;;;4.72;;
54167;SDS011;40072;50.958;3.592;2023-02-01T17:44:02;29.88;;;5.57;;
54167;SDS011;40072;50.958;3.592;2023-02-01T17:46:28;24.98;;;4.22;;
54167;SDS011;40072;50.958;3.592;2023-02-01T17:48:56;37.63;;;6.68;;
54167;SDS011;40072;50.958;3.592;2023-02-01T17:51:23;23.13;;;5.03;;
54167;SDS011;40072;50.958;3.592;2023-02-01T17:53:54;23.52;;;5.55;;
54167;SDS011;40072;50.958;3.592;2023-02-01T17:56:21;27.38;;;5.97;;
54167;SDS011;40072;50.958;3.592;2023-02-01T17:58:48;36.08;;;5.55;;
54167;SDS011;40072;50.958;3.592;2023-02-01T18:01:16;24.50;;;4.72;;
54167;SDS011;40072;50.958;3.592;2023-02-01T18:03:44;27.75;;;6.20;;
54167;SDS011;40072;50.958;3.592;2023-02-01T18:06:28;25.98;;;4.60;;